RESULTATS »

INSCRITS PRESENTATS ACABEN RETIRATS DESQUALIFICATS DIST. TRAM 1 DIST. TRAM 2 DIST. TRAM 3 TEMP. EXT TEMP. AIGUA
352 345 7 0 6 18 3 0 0

CLASSIFICACIÓ

MASCULÍ FEMENÍ CATEGORIES CLUBS (MASCULINA) CLUBS (FEMENINA) INDIVIDUALS GRUPS D'EDAT

LLOCDORSALNOMCLUBCAT.T.META| P.Tram 1 || P.Tram 2 |Km/hTEMPS| P.Tram 3 |PARC_1PARC_2
1 5118EVA LEDESMA CALVETCLUB ESPORTIU TRI 4.40ABF01:04:132700:19:407200:34:2831.3300:54:084000:10:050:00:000:00:00
2 1824CLAUDIA LUNA BONACHERAC.N. MATAROJNF01:05:452100:19:3513500:36:1929.7400:55:542800:09:510:00:000:00:00
3 106ANNA GODOY CONTRERASCIDADE DE LUGO FLUVIALSUB23F01:06:567500:21:1510000:35:2230.5400:56:375800:10:190:00:000:00:00
4 5770JUDITH LÓPEZ CANCHOINDEPENDENTABF01:11:498900:21:4322000:39:0327.6601:00:4611000:11:030:00:000:00:00
5 5055LAURA SANZBERROFASTTRIATLON CLUBABF01:12:1313200:22:3020700:38:4327.8901:01:1310600:11:000:00:000:00:00
6 4040LAIA CONESA I MURFASTTRIATLON CLUBJNF01:12:3413700:22:3220000:38:2928.0601:01:0115300:11:330:00:000:00:00
7 4045IRENE RODRIGUEZ GUELLCLUB TRIATLO BLANESABF01:12:5919700:23:5917700:37:3728.7101:01:3613700:11:230:00:000:00:00
8 24MARIA ALBA PEREZ SAFONTC.T. S.J. ABADESSESSUB23F01:13:5521500:24:2217000:37:2028.9301:01:4221100:12:130:00:000:00:00
9 3501MIRIAM CODINA CASTILLOCLUB TRIATLO GRANOLLERSABF01:14:1420800:24:1219800:38:2228.1501:02:3416500:11:400:00:000:00:00
10 1934KATE KRISTI KIDGERC.N. CATALUNYAABF01:14:2721800:24:2519300:38:0928.3101:02:3418500:11:530:00:000:00:00
11 5148AÏDA SOLÀ HERNÀNDEZC.A. IGUALADAABF01:15:3219500:23:5923800:40:0426.9601:04:0314400:11:290:00:000:00:00
12 5029ANNA VIÑOLAS RAMISAC.N. VIC-ETBABF01:15:5724200:25:0621600:38:5427.7601:04:0019100:11:570:00:000:00:00
13 3553LAIA MARTIN MAGDALENAGAVA TRIATLOJNF01:16:0524800:25:1620500:38:4227.9101:03:5820300:12:070:00:000:00:00
14 64GEMMA DIAZ RUIZGAVA TRIATLOCDF01:16:0523000:24:3522300:39:2327.4201:03:5820400:12:070:00:000:00:00
15 8MARTA BASSA GARCIAPRAT DISTANCE TRIATLOABF01:16:1022800:24:3322700:39:3527.2801:04:0819700:12:020:00:000:00:00
16 123IMMA VILA MIARONSC.N. VIC-ETBABF01:16:3122300:24:2723500:39:5227.0901:04:1920700:12:120:00:000:00:00
17 1815BELÉN SALOMONI SCHWABC.N. VIC-ETBABF01:17:4824600:25:1123200:39:4827.1401:04:5924600:12:490:00:000:00:00
18 3521MONICA CRISOL SALASCLUB NATACIO RUBIABF01:18:3223800:24:5426600:41:4525.8701:06:3918300:11:530:00:000:00:00
19 5027MARTA ROMANCE OMSC.N. SABADELLCDF01:18:3819900:24:0128000:42:3125.4001:06:3220200:12:060:00:000:00:00
20 76ELENA BARLABE BERNADOC.A. IGUALADAABF01:20:5526900:26:0826000:41:2026.1301:07:2828200:13:270:00:000:00:00
21 6MONTSE JUNCAROL REGUANTCLUB TRIATLO L´EIX DE NAVV1F01:20:5527400:26:1826100:41:2426.0901:07:4227200:13:130:00:000:00:00
22 3575ALBA PEREZ GARCIAP.C. CERVERA-TRIATLOJNF01:21:2929400:26:5226400:41:3425.9801:08:2625800:13:030:00:000:00:00
23 3590TERESA POU SAÑEC.N. VIC-ETBV1F01:21:3228600:26:2927400:42:0525.6601:08:3425200:12:580:00:000:00:00
24 5778MONTSERRAT PEREZ AYALACERDANYOLA CHV2F01:21:3326400:25:5428800:43:0925.0301:09:0323200:12:300:00:000:00:00
25 5014NOELIA GALLARDO LINARESCLUB TRIATLO BLANESABF01:21:3929300:26:4726500:41:4325.8901:08:3026600:13:090:00:000:00:00
26 3591LARA GUTIERREZ MORENOTRIATLO PALLEJAABF01:21:3930600:27:2125700:41:1126.2201:08:3226300:13:070:00:000:00:00
27 1968SUSANNA LLOPART BELLOCC.A. IGUALADAABF01:21:5929900:27:1425600:41:1126.2201:08:2528700:13:340:00:000:00:00
28 3576PAULA LOPEZ CASTILLOCASBOI TRIATLOSUB23F01:22:0222900:24:3430000:43:5024.6401:08:2429100:13:380:00:000:00:00
29 3567SILVIA RODRIGUEZ DONAIRECERDANYOLA CHABF01:23:3030800:27:2628100:42:3825.3301:10:0428000:13:260:00:000:00:00
30 87LOLI MELLADO SANCESCLUB TRIATLÓ SERRADELLS AABF01:23:3629700:27:0027200:42:0125.7001:09:0131800:14:350:00:000:00:00
31 5137AITANA DOMÈNECH MARTÍNEZPRAT DISTANCE TRIATLOABF01:23:5824000:24:5732300:47:2222.8001:12:1916200:11:390:00:000:00:00
32 5177LAURA GIMENO NOGUERAC.T. S.J. ABADESSESCDF01:24:2227700:26:2331000:44:5624.0401:11:1925700:13:030:00:000:00:00
33 3592ANDREA VICTORIA SANTA COLGAVA TRIATLOSUB23F01:24:4026100:25:4431300:45:0523.9601:10:4929700:13:510:00:000:00:00
34 116Mª CARME HERNANDEZ LOPEZCLUB NATACIO SITGESV1F01:24:4431800:27:5929200:43:1724.9501:11:1628300:13:280:00:000:00:00
35 1902Mª ANGELS MARZO GOMEZCLUB NATACIÓ SITGESABF01:24:4431700:27:5929100:43:1524.9701:11:1428400:13:300:00:000:00:00
36 5151MARTA PRADO LUQUEC.A. IGUALADAV1F01:24:5531900:27:5928200:42:4325.2801:10:4231000:14:130:00:000:00:00
37 3585MARTA COSANO BOFILLCLUB NATACIO BARCELONACDF01:24:5724700:25:1332100:46:5823.0001:12:1124100:12:460:00:000:00:00
38 4098ÀNGELS PRAT MÉNDEZCLUB ESPORTIU TRI 4.40JNF01:25:1329800:27:0530600:44:1724.3901:11:2229800:13:510:00:000:00:00
39 4020MARIA CASTRO MARTINEZCLUB TRIATLO GRANOLLERSCDF01:25:2131100:27:4529000:43:1324.9901:10:5831200:14:230:00:000:00:00
40 1941CRISTINA MARTINEZ RUBIOC.N. VIC-ETBABF01:25:2230900:27:4429700:43:3624.7701:11:2030400:14:020:00:000:00:00
41 4002LARA AZNAR BELTRANCLUB NATACIO BARCELONACDF01:28:4629100:26:4632500:47:3822.6701:14:2431100:14:220:00:000:00:00
42 5098LÍDIA TORRENTÓ BONETCLUB TRIATLO L´EIX DE NAVABF01:29:4732500:28:2632400:47:2422.7801:15:5030100:13:570:00:000:00:00
43 3526ANNA RIERA CARRERASCLUB TRIATLO BLANESV1F01:30:4829200:26:4733300:49:5821.6101:16:4530500:14:030:00:000:00:00
44 1851MARTA SANCHEZ SALINASCLUB TRIATLO L´EIX DE NAVV1F01:30:5332400:28:2532700:48:0022.5001:16:2531500:14:280:00:000:00:00
45 18CLAUDIA MAYNE CUSELLCLUB NATACIO BARCELONACDF01:31:3132000:28:0232800:48:2822.2801:16:3032700:15:010:00:000:00:00
46 5052Mª JOSÉ FARRÉ PINILLACLUB ESPORTIU TRI 4.40ABF01:33:2132600:28:4633400:50:0721.5501:18:5331600:14:280:00:000:00:00
47 1983JUDIT CARRERAS RUIZCLUB TRIATLO BADIA DEL VACDF01:33:3233200:29:2233000:48:5622.0701:18:1832800:15:140:00:000:00:00
48 31MONTSE CUEVAS CASTILLOCLUB TRIATLO GRANOLLERSV2F01:33:4233300:29:2733200:49:1721.9101:18:4432600:14:580:00:000:00:00
49 6012CRISTINA REBULL SANTOSLLICENCIA DE DIAV1F01:33:4329000:26:3734000:53:5820.0101:20:3526500:13:080:00:000:00:00
50 5004ISA RAMOS DA PENATRIATLO L´HOSPITALETV1F01:37:3434200:33:2332200:47:1222.8801:20:3533900:16:590:00:000:00:00
51 92EVA DONAT VEIGAC.N. CATALUNYAV1F01:37:4533700:29:4833900:52:3120.5601:22:1933100:15:260:00:000:00:00
52 5101ANNA MACIÀ SOLERTG TRIATLO SITGESCDF01:37:52000:00:00000:00:000.0000:00:00000:00:000:00:000:00:00
53 57ROSA PONCE RODATG TRIATLO SITGESV1F01:38:4733900:31:0833800:52:2220.6201:23:3032900:15:170:00:000:00:00
54 42MIREIA MALO LOPEZCLUB TRIATLO BERGAABF01:40:0934000:31:3733700:51:5420.8101:23:3133600:16:380:00:000:00:00
55 28ROSA MARIA GIBERNA CONDECERRR IGUALADAV1F01:49:5034300:36:4134100:55:1219.5701:31:5334100:17:570:00:000:00:00






FEDERACIÓ CATALANA DE TRIATLÓ
SEU CENTRAL I CORRESPONDÈNCIA: Rambla Guipúscoa 23-25 2on-D · 08018 Barcelona · Tel / Fax : 93 307 93 35
ATENCIÓ AL PÚBLIC: Passeig Joan de Borbó, 93 (Club Natació Barcelona) · 08039 Barcelona · Tel / Fax : 93 307 93 32